Time;durP1;ratioP1;P1;durP2;ratioP2;P2;SDS_P1;SDS_P2;PMS_P1;PMS_P2;Temp;Humidity;BMP_temperature;BMP_pressure;BME280_temperature;BME280_humidity;BME280_pressure;Samples;Min_cycle;Max_cycle;Signal;HPM_P1;HPM_P2
2022/10/25 00:00:18;;;;;;;4.05;1.27;;;;;;;;;;5091453;28;20024;-86
2022/10/25 00:02:44;;;;;;;2.35;1.30;;;;;;;;;;5088950;28;20046;-86
2022/10/25 00:05:13;;;;;;;2.00;1.35;;;;;;;;;;5092704;28;20023;-85
2022/10/25 00:07:39;;;;;;;3.08;1.67;;;;;;;;;;5090429;28;20107;-84
2022/10/25 00:10:05;;;;;;;6.30;1.33;;;;;;;;;;5091398;28;20116;-85
2022/10/25 00:12:30;;;;;;;2.20;1.23;;;;;;;;;;5092044;28;20057;-85
2022/10/25 00:15:00;;;;;;;1.77;1.20;;;;;;;;;;5092716;28;20050;-85
2022/10/25 00:17:25;;;;;;;1.20;1.00;;;;;;;;;;5091275;28;20024;-84
2022/10/25 00:19:50;;;;;;;2.33;1.52;;;;;;;;;;5091139;28;20028;-84
2022/10/25 00:22:16;;;;;;;1.35;1.17;;;;;;;;;;5091245;28;20044;-86
2022/10/25 00:24:41;;;;;;;4.22;1.75;;;;;;;;;;5091236;28;20093;-85
2022/10/25 00:27:07;;;;;;;5.43;1.50;;;;;;;;;;5092578;28;20061;-85
2022/10/25 00:29:32;;;;;;;5.55;1.58;;;;;;;;;;5092487;28;20036;-85
2022/10/25 00:31:59;;;;;;;1.77;1.40;;;;;;;;;;5070305;28;20044;-85
2022/10/25 00:34:24;;;;;;;8.80;1.95;;;;;;;;;;5071976;28;20023;-85
2022/10/25 00:36:49;;;;;;;3.28;1.35;;;;;;;;;;5070484;28;20029;-85
2022/10/25 00:39:15;;;;;;;5.55;2.05;;;;;;;;;;5072262;28;20094;-85
2022/10/25 00:41:40;;;;;;;1.80;1.30;;;;;;;;;;5069540;28;20586;-85
2022/10/25 00:44:43;;;;;;;3.80;1.58;;;;;;;;;;5071675;28;20032;-86
2022/10/25 00:47:21;;;;;;;3.35;1.23;;;;;;;;;;5071018;28;20032;-85
2022/10/25 00:50:12;;;;;;;1.17;1.02;;;;;;;;;;5070008;28;20032;-86
2022/10/25 00:52:45;;;;;;;3.00;1.10;;;;;;;;;;5069198;28;20495;-85
2022/10/25 00:55:13;;;;;;;1.95;1.30;;;;;;;;;;5070589;28;20077;-86
2022/10/25 00:57:54;;;;;;;2.22;1.30;;;;;;;;;;5071587;28;20021;-85
2022/10/25 01:00:20;;;;;;;6.43;1.48;;;;;;;;;;5071299;28;20051;-85
2022/10/25 01:02:46;;;;;;;3.22;1.77;;;;;;;;;;5070851;28;20032;-85
2022/10/25 01:05:11;;;;;;;2.55;1.00;;;;;;;;;;5070252;28;20039;-85
2022/10/25 01:07:37;;;;;;;1.48;1.00;;;;;;;;;;5070863;28;20070;-85
2022/10/25 01:10:04;;;;;;;5.70;1.58;;;;;;;;;;5071838;28;20107;-84
2022/10/25 01:12:29;;;;;;;2.30;1.17;;;;;;;;;;5069866;28;20034;-83
2022/10/25 01:14:54;;;;;;;1.23;1.02;;;;;;;;;;5071548;28;20099;-84
2022/10/25 01:17:48;;;;;;;2.30;1.02;;;;;;;;;;5069893;28;20039;-84
2022/10/25 01:20:38;;;;;;;0.98;0.98;;;;;;;;;;5068422;28;20029;-86
2022/10/25 01:23:06;;;;;;;6.55;1.50;;;;;;;;;;5067047;28;20497;-86
2022/10/25 01:25:37;;;;;;;1.02;0.90;;;;;;;;;;5071552;28;20044;-86
2022/10/25 01:28:26;;;;;;;1.48;1.10;;;;;;;;;;5069169;28;20021;-86
2022/10/25 01:31:08;;;;;;;2.78;1.05;;;;;;;;;;5070466;28;20065;-85
2022/10/25 01:33:45;;;;;;;11.38;2.05;;;;;;;;;;5070838;28;20071;-85
2022/10/25 01:36:14;;;;;;;2.38;1.17;;;;;;;;;;5100665;28;20025;-84
2022/10/25 01:39:02;;;;;;;1.58;1.20;;;;;;;;;;5074186;28;20078;-85
2022/10/25 01:41:35;;;;;;;4.38;1.73;;;;;;;;;;5068626;28;20025;-84
2022/10/25 01:44:42;;;;;;;13.70;2.60;;;;;;;;;;5066917;28;20025;-84
2022/10/25 01:47:21;;;;;;;14.57;2.80;;;;;;;;;;5065639;28;20079;-84
2022/10/25 01:49:51;;;;;;;5.20;1.02;;;;;;;;;;5074755;28;20066;-84
2022/10/25 01:52:21;;;;;;;1.73;1.10;;;;;;;;;;5074365;28;20020;-85
2022/10/25 01:54:47;;;;;;;6.93;1.33;;;;;;;;;;5071143;28;20546;-86
2022/10/25 01:57:30;;;;;;;2.42;1.10;;;;;;;;;;5072218;28;20025;-85
2022/10/25 02:00:11;;;;;;;6.40;1.55;;;;;;;;;;5074931;28;20480;-85
2022/10/25 02:02:58;;;;;;;2.60;1.60;;;;;;;;;;5073004;28;20427;-85
2022/10/25 02:05:40;;;;;;;1.95;1.20;;;;;;;;;;5067775;28;20415;-85
2022/10/25 02:08:18;;;;;;;9.82;1.48;;;;;;;;;;5073605;28;20025;-85
2022/10/25 02:10:51;;;;;;;1.73;1.08;;;;;;;;;;5071221;28;20039;-85
2022/10/25 02:13:31;;;;;;;1.98;1.27;;;;;;;;;;5073182;28;20029;-84
2022/10/25 02:16:17;;;;;;;2.35;1.25;;;;;;;;;;5075105;28;20028;-85
2022/10/25 02:18:47;;;;;;;5.32;1.92;;;;;;;;;;5072691;28;20095;-84
2022/10/25 02:21:16;;;;;;;1.75;1.33;;;;;;;;;;5074185;28;20155;-84
2022/10/25 02:23:42;;;;;;;3.50;1.13;;;;;;;;;;5072354;28;20127;-85
2022/10/25 02:26:09;;;;;;;3.38;1.65;;;;;;;;;;5071813;28;20154;-86
2022/10/25 02:28:37;;;;;;;1.50;1.23;;;;;;;;;;5073925;28;20016;-85
2022/10/25 02:31:09;;;;;;;1.45;1.27;;;;;;;;;;5073317;28;20082;-85
2022/10/25 02:33:35;;;;;;;4.07;1.58;;;;;;;;;;5073694;28;20032;-85
2022/10/25 02:36:23;;;;;;;1.67;1.00;;;;;;;;;;5074253;28;20503;-85
2022/10/25 02:38:50;;;;;;;4.07;1.63;;;;;;;;;;5073614;28;21538;-85
2022/10/25 02:41:17;;;;;;;1.58;1.23;;;;;;;;;;5073004;28;20020;-85
2022/10/25 02:43:42;;;;;;;2.55;1.50;;;;;;;;;;5070627;28;20028;-85
2022/10/25 02:46:14;;;;;;;5.15;1.30;;;;;;;;;;5074512;28;20518;-85
2022/10/25 02:48:40;;;;;;;3.97;2.15;;;;;;;;;;5074237;28;20025;-85
2022/10/25 02:51:07;;;;;;;3.13;1.80;;;;;;;;;;5074028;28;20552;-84
2022/10/25 02:53:32;;;;;;;2.55;2.00;;;;;;;;;;5074205;28;20522;-85
2022/10/25 02:56:04;;;;;;;6.05;1.85;;;;;;;;;;5073563;28;20032;-84
2022/10/25 02:58:32;;;;;;;2.20;1.50;;;;;;;;;;5075067;28;20024;-85
2022/10/25 03:00:58;;;;;;;1.83;1.40;;;;;;;;;;5072433;28;20587;-85
2022/10/25 03:03:24;;;;;;;4.05;1.75;;;;;;;;;;5072895;28;20034;-85
2022/10/25 03:05:49;;;;;;;3.10;1.70;;;;;;;;;;5073310;28;20099;-85
2022/10/25 03:08:15;;;;;;;7.82;2.45;;;;;;;;;;5072002;28;20025;-84
2022/10/25 03:10:40;;;;;;;2.55;1.40;;;;;;;;;;5072983;28;20069;-85
2022/10/25 03:13:05;;;;;;;2.15;1.38;;;;;;;;;;5072164;28;20032;-85
2022/10/25 03:15:31;;;;;;;1.20;0.95;;;;;;;;;;5071753;28;20357;-86
2022/10/25 03:17:56;;;;;;;3.80;2.10;;;;;;;;;;5072908;28;20035;-84
2022/10/25 03:20:22;;;;;;;2.40;1.50;;;;;;;;;;5071584;28;20160;-85
2022/10/25 03:22:47;;;;;;;1.02;0.93;;;;;;;;;;5072099;28;20041;-86
2022/10/25 03:25:12;;;;;;;4.75;1.25;;;;;;;;;;5073267;28;20032;-85
2022/10/25 03:27:38;;;;;;;4.18;1.73;;;;;;;;;;5070553;28;20021;-84
2022/10/25 03:30:04;;;;;;;8.77;1.35;;;;;;;;;;5070117;28;20027;-85
2022/10/25 03:32:29;;;;;;;2.30;1.42;;;;;;;;;;5072662;28;20024;-85
2022/10/25 03:34:55;;;;;;;3.78;1.65;;;;;;;;;;5072241;28;20028;-85
2022/10/25 03:37:20;;;;;;;2.83;1.77;;;;;;;;;;5072444;28;20028;-85
2022/10/25 03:39:46;;;;;;;2.95;1.58;;;;;;;;;;5072345;28;20473;-85
2022/10/25 03:42:11;;;;;;;4.60;1.10;;;;;;;;;;5072333;28;20111;-84
2022/10/25 03:44:36;;;;;;;2.35;1.50;;;;;;;;;;5069177;28;20547;-85
2022/10/25 03:47:02;;;;;;;3.78;1.92;;;;;;;;;;5070504;28;20027;-85
2022/10/25 03:49:27;;;;;;;3.78;1.80;;;;;;;;;;5072695;28;20572;-85
2022/10/25 03:51:52;;;;;;;3.45;1.48;;;;;;;;;;5073062;28;20053;-85
2022/10/25 03:54:18;;;;;;;2.38;1.73;;;;;;;;;;5072822;28;20352;-86
2022/10/25 03:56:43;;;;;;;7.25;2.28;;;;;;;;;;5072160;28;20024;-85
2022/10/25 03:59:09;;;;;;;5.20;1.98;;;;;;;;;;5071450;28;20024;-85
2022/10/25 04:01:34;;;;;;;7.60;2.58;;;;;;;;;;5070976;28;20020;-84
2022/10/25 04:03:59;;;;;;;3.92;1.70;;;;;;;;;;5068303;28;20028;-86
2022/10/25 04:06:25;;;;;;;2.15;1.77;;;;;;;;;;5071906;28;20383;-85
2022/10/25 04:08:50;;;;;;;8.15;2.33;;;;;;;;;;5071117;28;20048;-84
2022/10/25 04:11:16;;;;;;;4.50;2.83;;;;;;;;;;5070881;28;20024;-87
2022/10/25 04:13:41;;;;;;;3.17;1.98;;;;;;;;;;5072733;28;20480;-85
2022/10/25 04:16:07;;;;;;;3.05;1.27;;;;;;;;;;5072511;28;20383;-85
2022/10/25 04:18:33;;;;;;;2.67;1.70;;;;;;;;;;5071826;28;20147;-86
2022/10/25 04:20:59;;;;;;;5.97;2.55;;;;;;;;;;5072410;28;20031;-89
2022/10/25 04:23:24;;;;;;;13.70;2.67;;;;;;;;;;5071750;28;20044;-86
2022/10/25 04:25:50;;;;;;;9.05;1.83;;;;;;;;;;5069554;28;20024;-85
2022/10/25 04:28:15;;;;;;;7.07;2.25;;;;;;;;;;5070942;28;20024;-85
2022/10/25 04:30:41;;;;;;;3.30;1.58;;;;;;;;;;5069607;28;20036;-84
2022/10/25 04:33:07;;;;;;;2.60;1.40;;;;;;;;;;5068889;28;20025;-85
2022/10/25 04:35:32;;;;;;;1.10;1.00;;;;;;;;;;5072052;28;20031;-85
2022/10/25 04:37:58;;;;;;;1.83;1.35;;;;;;;;;;5068435;28;20033;-85
2022/10/25 04:40:23;;;;;;;3.60;1.65;;;;;;;;;;5070626;28;20408;-84
2022/10/25 04:42:49;;;;;;;4.03;1.35;;;;;;;;;;5070578;28;20519;-84
2022/10/25 04:45:14;;;;;;;4.45;1.88;;;;;;;;;;5070611;28;20492;-84
2022/10/25 04:47:40;;;;;;;4.63;1.85;;;;;;;;;;5069457;28;20024;-85
2022/10/25 04:50:06;;;;;;;0.98;0.93;;;;;;;;;;5071500;28;20028;-85
2022/10/25 04:52:31;;;;;;;2.45;1.08;;;;;;;;;;5070670;28;20024;-85
2022/10/25 04:54:57;;;;;;;3.67;2.08;;;;;;;;;;5071433;28;20067;-85
2022/10/25 04:57:24;;;;;;;4.05;1.50;;;;;;;;;;5068856;28;20054;-84
2022/10/25 04:59:49;;;;;;;2.50;1.67;;;;;;;;;;5069735;28;20032;-84
2022/10/25 05:02:15;;;;;;;2.72;1.35;;;;;;;;;;5068821;28;20549;-84
2022/10/25 05:04:41;;;;;;;4.90;2.10;;;;;;;;;;5069667;28;20024;-84
2022/10/25 05:07:06;;;;;;;3.97;1.45;;;;;;;;;;5070373;28;20028;-85
2022/10/25 05:09:31;;;;;;;3.00;2.03;;;;;;;;;;5071311;28;20513;-85
2022/10/25 05:11:57;;;;;;;2.20;1.80;;;;;;;;;;5071367;28;20077;-84
2022/10/25 05:14:22;;;;;;;4.75;1.80;;;;;;;;;;5069812;28;20508;-86
2022/10/25 05:16:47;;;;;;;2.22;1.40;;;;;;;;;;5071034;28;20124;-85
2022/10/25 05:19:13;;;;;;;4.63;1.85;;;;;;;;;;5069535;28;20480;-86
2022/10/25 05:21:38;;;;;;;4.13;1.80;;;;;;;;;;5077184;28;20028;-84
2022/10/25 05:24:04;;;;;;;6.75;2.63;;;;;;;;;;5077727;28;20048;-85
2022/10/25 05:26:30;;;;;;;2.28;1.13;;;;;;;;;;5078196;28;20522;-85
2022/10/25 05:28:56;;;;;;;5.55;1.58;;;;;;;;;;5078063;28;20048;-85
2022/10/25 05:31:24;;;;;;;3.95;1.83;;;;;;;;;;5077893;28;20024;-85
2022/10/25 05:33:55;;;;;;;2.65;1.33;;;;;;;;;;5078000;28;20107;-84
2022/10/25 05:36:21;;;;;;;1.98;1.30;;;;;;;;;;5075555;28;20130;-84
2022/10/25 05:38:47;;;;;;;4.25;2.03;;;;;;;;;;5076446;28;20109;-87
2022/10/25 05:41:14;;;;;;;3.13;1.20;;;;;;;;;;5076598;28;20054;-85
2022/10/25 05:43:40;;;;;;;2.42;1.52;;;;;;;;;;5077847;28;20439;-86
2022/10/25 05:46:13;;;;;;;1.88;1.52;;;;;;;;;;5077987;28;20106;-85
2022/10/25 05:48:39;;;;;;;23.83;15.02;;;;;;;;;;5077685;28;20539;-85
2022/10/25 05:51:08;;;;;;;14.75;8.40;;;;;;;;;;5076519;28;20085;-84
2022/10/25 05:53:33;;;;;;;3.27;2.07;;;;;;;;;;5078005;28;20050;-84
2022/10/25 05:55:59;;;;;;;1.17;1.05;;;;;;;;;;5077469;28;20355;-86
2022/10/25 05:58:24;;;;;;;5.13;3.08;;;;;;;;;;5074843;28;20480;-85
2022/10/25 06:00:50;;;;;;;2.88;1.42;;;;;;;;;;5082071;28;20059;-84
2022/10/25 06:03:15;;;;;;;3.05;1.58;;;;;;;;;;5074983;28;20059;-87
2022/10/25 06:05:41;;;;;;;5.78;2.17;;;;;;;;;;5075300;28;20465;-85
2022/10/25 06:08:06;;;;;;;5.70;2.30;;;;;;;;;;5075293;28;20040;-85
2022/10/25 06:10:31;;;;;;;5.70;2.30;;;;;;;;;;5075122;28;20358;-84
2022/10/25 06:12:57;;;;;;;3.15;1.80;;;;;;;;;;5076990;28;20111;-84
2022/10/25 06:15:22;;;;;;;4.70;2.20;;;;;;;;;;5076228;28;20026;-85
2022/10/25 06:17:47;;;;;;;3.72;2.35;;;;;;;;;;5075819;28;21032;-84
2022/10/25 06:20:13;;;;;;;3.65;2.35;;;;;;;;;;5076428;28;20036;-86
2022/10/25 06:22:38;;;;;;;4.30;2.67;;;;;;;;;;5077720;28;20430;-85
2022/10/25 06:25:04;;;;;;;6.40;3.38;;;;;;;;;;5074375;28;20024;-85
2022/10/25 06:27:30;;;;;;;6.85;2.70;;;;;;;;;;5075913;28;20024;-86
2022/10/25 06:29:55;;;;;;;8.30;3.83;;;;;;;;;;5072879;28;20078;-86
2022/10/25 06:32:21;;;;;;;4.93;2.97;;;;;;;;;;5070470;28;20032;-87
2022/10/25 06:34:46;;;;;;;7.45;3.08;;;;;;;;;;5071166;28;20444;-85
2022/10/25 06:37:12;;;;;;;17.38;4.25;;;;;;;;;;5073040;28;20028;-86
2022/10/25 06:39:37;;;;;;;4.97;2.60;;;;;;;;;;5073117;28;20062;-87
2022/10/25 06:42:02;;;;;;;5.55;2.95;;;;;;;;;;5073253;28;20052;-88
2022/10/25 06:44:28;;;;;;;5.38;3.58;;;;;;;;;;5071748;28;20052;-87
2022/10/25 07:05:21;;;;;;;;;;;;;;;;;;;;;
2022/10/25 08:27:07;;;;;;;5.35;1.80;;;;;;;;;;5028400;28;20153;-86
2022/10/25 08:29:41;;;;;;;5.05;1.73;;;;;;;;;;5039079;28;20036;-87
2022/10/25 08:32:07;;;;;;;5.03;1.60;;;;;;;;;;5043498;28;20037;-87
2022/10/25 08:34:42;;;;;;;2.78;1.92;;;;;;;;;;5047453;28;20036;-85
2022/10/25 08:37:39;;;;;;;6.00;1.73;;;;;;;;;;5025909;28;20029;-86
2022/10/25 08:40:06;;;;;;;10.93;2.50;;;;;;;;;;5040192;28;20049;-85
2022/10/25 08:42:34;;;;;;;4.90;2.17;;;;;;;;;;5033351;28;20055;-87
2022/10/25 08:45:18;;;;;;;5.88;2.45;;;;;;;;;;5042005;28;20021;-87
2022/10/25 08:47:46;;;;;;;4.45;2.38;;;;;;;;;;5045909;28;20026;-85
2022/10/25 08:50:29;;;;;;;11.23;2.40;;;;;;;;;;5043187;28;20029;-86
2022/10/25 08:52:59;;;;;;;6.97;2.28;;;;;;;;;;5039481;28;20121;-85
2022/10/25 08:55:34;;;;;;;7.03;1.60;;;;;;;;;;5043564;28;20029;-85
2022/10/25 08:58:02;;;;;;;8.45;2.53;;;;;;;;;;5043715;28;20024;-86
2022/10/25 09:00:39;;;;;;;4.25;2.40;;;;;;;;;;5046343;28;20035;-85
2022/10/25 09:03:15;;;;;;;3.63;2.35;;;;;;;;;;5051341;28;20036;-86
2022/10/25 09:05:43;;;;;;;6.10;1.98;;;;;;;;;;5018440;28;20039;-85
2022/10/25 09:08:28;;;;;;;2.88;1.63;;;;;;;;;;5050707;28;20028;-86
2022/10/25 09:11:18;;;;;;;8.45;2.63;;;;;;;;;;5030743;28;20116;-86
2022/10/25 09:14:08;;;;;;;4.47;2.63;;;;;;;;;;5024940;28;20071;-86
2022/10/25 09:17:09;;;;;;;4.32;2.15;;;;;;;;;;5044184;28;20469;-87
2022/10/25 09:19:41;;;;;;;14.35;2.28;;;;;;;;;;5017660;28;20040;-86
2022/10/25 09:22:34;;;;;;;5.03;2.42;;;;;;;;;;5028208;28;20029;-86
2022/10/25 09:25:24;;;;;;;9.27;2.13;;;;;;;;;;5038286;28;20049;-89
2022/10/25 09:28:00;;;;;;;;;;;;;;;;;;5034738;28;20068;-87
2022/10/25 09:30:28;;;;;;;5.28;1.67;;;;;;;;;;5028389;28;19912;-87
2022/10/25 09:33:00;;;;;;;5.13;2.00;;;;;;;;;;5051672;28;20025;-87
2022/10/25 09:35:39;;;;;;;4.90;2.25;;;;;;;;;;5028178;28;20052;-85
2022/10/25 09:38:25;;;;;;;2.75;1.92;;;;;;;;;;5054372;28;20025;-86
2022/10/25 09:41:04;;;;;;;2.50;1.60;;;;;;;;;;5042844;28;20041;-86
2022/10/25 09:43:37;;;;;;;5.57;2.95;;;;;;;;;;5020666;28;20144;-86
2022/10/25 09:46:12;;;;;;;5.65;2.95;;;;;;;;;;5036070;28;20108;-87
2022/10/25 09:48:55;;;;;;;3.05;1.63;;;;;;;;;;5027516;28;20083;-86
2022/10/25 09:51:29;;;;;;;3.42;2.20;;;;;;;;;;5037079;28;20474;-87
2022/10/25 09:53:56;;;;;;;9.98;2.20;;;;;;;;;;5040552;28;20024;-87
2022/10/25 09:56:22;;;;;;;6.95;2.95;;;;;;;;;;5045174;28;20025;-88
2022/10/25 09:58:47;;;;;;;7.82;2.60;;;;;;;;;;5032225;28;20383;-87
2022/10/25 10:01:20;;;;;;;2.55;1.85;;;;;;;;;;5031387;28;20035;-86
2022/10/25 10:03:45;;;;;;;9.68;2.22;;;;;;;;;;5047472;28;20033;-88
2022/10/25 10:06:24;;;;;;;4.22;2.10;;;;;;;;;;5039903;28;21057;-86
2022/10/25 10:08:55;;;;;;;2.85;1.60;;;;;;;;;;5051464;28;20055;-87
2022/10/25 10:11:21;;;;;;;3.58;1.90;;;;;;;;;;5043145;28;20033;-88
2022/10/25 10:13:55;;;;;;;3.90;1.60;;;;;;;;;;5038245;28;20025;-90
2022/10/25 10:16:25;;;;;;;2.25;1.75;;;;;;;;;;5045827;28;20021;-90
2022/10/25 10:19:11;;;;;;;4.35;2.65;;;;;;;;;;5056119;28;20041;-86
2022/10/25 10:21:44;;;;;;;7.63;2.30;;;;;;;;;;5052933;28;20087;-85
2022/10/25 10:24:23;;;;;;;3.88;2.38;;;;;;;;;;5043612;28;20040;-85
2022/10/25 10:26:56;;;;;;;3.45;2.25;;;;;;;;;;5043632;28;20489;-84
2022/10/25 10:29:27;;;;;;;10.15;2.60;;;;;;;;;;5044536;28;20421;-83
2022/10/25 10:31:59;;;;;;;5.85;2.75;;;;;;;;;;5048484;28;20028;-87
2022/10/25 10:34:43;;;;;;;10.75;2.40;;;;;;;;;;5024220;28;20021;-86
2022/10/25 10:37:22;;;;;;;4.68;2.60;;;;;;;;;;5049575;28;20579;-86
2022/10/25 10:39:53;;;;;;;4.00;2.15;;;;;;;;;;5045747;28;20140;-83
2022/10/25 10:42:41;;;;;;;3.88;2.00;;;;;;;;;;5044769;28;20035;-86
2022/10/25 10:45:06;;;;;;;3.35;1.83;;;;;;;;;;5047426;28;20172;-86
2022/10/25 10:47:47;;;;;;;8.82;2.35;;;;;;;;;;5022022;28;20472;-85
2022/10/25 10:50:22;;;;;;;9.35;2.17;;;;;;;;;;5044054;28;20652;-88
2022/10/25 10:53:07;;;;;;;11.75;2.70;;;;;;;;;;5035230;28;20083;-86
2022/10/25 10:55:45;;;;;;;3.75;2.22;;;;;;;;;;5037860;28;20365;-86
2022/10/25 10:58:16;;;;;;;9.35;2.28;;;;;;;;;;5030843;28;20032;-85
2022/10/25 11:00:55;;;;;;;4.03;2.05;;;;;;;;;;5052298;28;20103;-85
2022/10/25 11:03:53;;;;;;;;;;;;;;;;;;5035821;28;20028;-85
2022/10/25 11:06:33;;;;;;;5.13;2.10;;;;;;;;;;5013887;28;19912;-86
2022/10/25 11:09:11;;;;;;;8.85;2.60;;;;;;;;;;5050484;28;20017;-87
2022/10/25 11:11:40;;;;;;;3.50;2.15;;;;;;;;;;5033080;28;20025;-87
2022/10/25 11:14:14;;;;;;;4.82;2.60;;;;;;;;;;5025441;28;20381;-87
2022/10/25 11:16:53;;;;;;;4.47;2.35;;;;;;;;;;5046806;28;20163;-86
2022/10/25 11:19:42;;;;;;;5.50;2.22;;;;;;;;;;5052046;28;20495;-86
2022/10/25 11:22:16;;;;;;;16.13;2.88;;;;;;;;;;5050565;28;20033;-86
2022/10/25 11:25:15;;;;;;;3.38;2.10;;;;;;;;;;5050651;28;20103;-87
2022/10/25 11:28:18;;;;;;;5.63;1.95;;;;;;;;;;5025603;28;20466;-87
2022/10/25 11:31:14;;;;;;;3.15;1.92;;;;;;;;;;5032833;28;20037;-86
2022/10/25 11:34:04;;;;;;;5.57;2.50;;;;;;;;;;5029703;28;20124;-86
2022/10/25 11:36:46;;;;;;;;;;;;;;;;;;5034525;28;20036;-87
2022/10/25 11:39:17;;;;;;;4.80;2.17;;;;;;;;;;5023107;28;20373;-87
2022/10/25 11:41:47;;;;;;;6.95;2.17;;;;;;;;;;5026552;28;20075;-87
2022/10/25 11:44:15;;;;;;;;;;;;;;;;;;5033719;28;20029;-86
2022/10/25 11:47:19;;;;;;;5.47;2.70;;;;;;;;;;5021304;28;20021;-86
2022/10/25 11:50:12;;;;;;;4.70;2.17;;;;;;;;;;5026246;28;20390;-87
2022/10/25 11:53:01;;;;;;;3.33;2.15;;;;;;;;;;5046508;28;20032;-87
2022/10/25 11:55:31;;;;;;;5.15;1.95;;;;;;;;;;5043434;28;20021;-87
2022/10/25 11:58:07;;;;;;;6.85;2.63;;;;;;;;;;5051501;28;20040;-87
2022/10/25 12:00:50;;;;;;;3.63;1.77;;;;;;;;;;5043871;28;20312;-87
2022/10/25 12:03:31;;;;;;;2.28;1.80;;;;;;;;;;5031251;28;20033;-87
2022/10/25 12:06:11;;;;;;;6.80;1.83;;;;;;;;;;5053817;28;20036;-87
2022/10/25 12:09:04;;;;;;;15.73;2.85;;;;;;;;;;5033410;28;20025;-86
2022/10/25 12:11:36;;;;;;;11.52;3.92;;;;;;;;;;5045860;28;20436;-87
2022/10/25 12:14:11;;;;;;;5.28;3.38;;;;;;;;;;5046772;28;20024;-86
2022/10/25 12:16:39;;;;;;;7.63;2.60;;;;;;;;;;5023615;28;20025;-86
2022/10/25 12:19:26;;;;;;;6.20;2.75;;;;;;;;;;5046624;28;20032;-87
2022/10/25 12:22:02;;;;;;;3.88;1.98;;;;;;;;;;5045489;28;20036;-87
2022/10/25 12:24:38;;;;;;;5.97;2.13;;;;;;;;;;5029374;28;20024;-88
2022/10/25 12:27:04;;;;;;;14.65;2.78;;;;;;;;;;5041499;28;20580;-87
2022/10/25 12:29:36;;;;;;;4.57;2.60;;;;;;;;;;5047358;28;20033;-88
2022/10/25 12:32:07;;;;;;;10.63;2.40;;;;;;;;;;5036482;28;20033;-87
2022/10/25 12:34:52;;;;;;;5.43;2.50;;;;;;;;;;5025477;28;20082;-87
2022/10/25 12:37:18;;;;;;;5.20;2.35;;;;;;;;;;5030535;28;20481;-87
2022/10/25 12:39:45;;;;;;;3.75;2.30;;;;;;;;;;5046144;28;20176;-88
2022/10/25 12:42:19;;;;;;;7.20;2.20;;;;;;;;;;5049600;28;20045;-87
2022/10/25 12:45:16;;;;;;;8.70;2.78;;;;;;;;;;5050856;28;20025;-87
2022/10/25 12:48:07;;;;;;;6.28;2.45;;;;;;;;;;5047108;28;20032;-88
2022/10/25 12:51:10;;;;;;;3.85;2.30;;;;;;;;;;5039324;28;20090;-87
2022/10/25 12:53:54;;;;;;;6.75;2.28;;;;;;;;;;5027890;28;20032;-87
2022/10/25 12:56:57;;;;;;;4.30;1.88;;;;;;;;;;5029754;28;20029;-87
2022/10/25 12:59:35;;;;;;;4.68;2.47;;;;;;;;;;5032211;28;20484;-88
2022/10/25 13:02:37;;;;;;;4.40;2.90;;;;;;;;;;5048155;28;20473;-87
2022/10/25 13:05:24;;;;;;;5.40;2.75;;;;;;;;;;5045701;28;20095;-86
2022/10/25 13:07:53;;;;;;;3.00;2.08;;;;;;;;;;5047707;28;20071;-87
2022/10/25 13:10:20;;;;;;;8.20;2.50;;;;;;;;;;5049327;28;20033;-87
2022/10/25 13:12:58;;;;;;;5.32;2.22;;;;;;;;;;5026020;28;20040;-88
2022/10/25 13:15:23;;;;;;;4.03;2.22;;;;;;;;;;5028112;28;20116;-87
2022/10/25 13:18:24;;;;;;;5.10;2.22;;;;;;;;;;5048497;28;20098;-87
2022/10/25 13:20:51;;;;;;;6.63;2.25;;;;;;;;;;5047073;28;20378;-86
2022/10/25 13:23:48;;;;;;;5.75;1.80;;;;;;;;;;5022455;28;20057;-87
2022/10/25 13:26:19;;;;;;;4.63;2.17;;;;;;;;;;5034180;28;20037;-86
2022/10/25 13:28:48;;;;;;;3.63;1.85;;;;;;;;;;5045539;28;20824;-86
2022/10/25 13:31:32;;;;;;;3.88;2.00;;;;;;;;;;5042190;28;20025;-86
2022/10/25 13:34:13;;;;;;;5.07;2.42;;;;;;;;;;5033584;28;20043;-86
2022/10/25 13:36:50;;;;;;;4.95;2.42;;;;;;;;;;5051188;28;20040;-87
2022/10/25 13:39:44;;;;;;;5.38;2.17;;;;;;;;;;5046947;28;20040;-86
2022/10/25 13:42:13;;;;;;;3.28;1.67;;;;;;;;;;5047895;28;20033;-84
2022/10/25 13:44:53;;;;;;;2.53;1.52;;;;;;;;;;5048754;28;20027;-87
2022/10/25 13:47:27;;;;;;;7.60;2.10;;;;;;;;;;5050795;28;20525;-86
2022/10/25 13:49:52;;;;;;;4.88;2.60;;;;;;;;;;5041534;28;20540;-85
2022/10/25 13:52:31;;;;;;;5.50;2.53;;;;;;;;;;5046612;28;20104;-86
2022/10/25 13:54:57;;;;;;;3.35;2.03;;;;;;;;;;5049519;28;20044;-85
2022/10/25 13:57:47;;;;;;;3.80;1.85;;;;;;;;;;5051008;28;20029;-86
2022/10/25 14:00:34;;;;;;;5.65;2.38;;;;;;;;;;5052027;28;20029;-87
2022/10/25 14:03:09;;;;;;;4.60;1.92;;;;;;;;;;5031108;28;20033;-86
2022/10/25 14:05:53;;;;;;;3.20;1.17;;;;;;;;;;5052731;28;20029;-85
2022/10/25 14:08:26;;;;;;;3.60;2.00;;;;;;;;;;5053344;28;20111;-86
2022/10/25 14:10:52;;;;;;;7.97;2.00;;;;;;;;;;5050200;28;20025;-89
2022/10/25 14:13:36;;;;;;;4.95;1.63;;;;;;;;;;5052495;28;20029;-88
2022/10/25 14:16:03;;;;;;;4.05;2.10;;;;;;;;;;5058151;28;20020;-88
2022/10/25 14:18:32;;;;;;;3.00;1.80;;;;;;;;;;5049432;28;20026;-88
2022/10/25 14:21:04;;;;;;;3.45;1.98;;;;;;;;;;5032540;28;20036;-87
2022/10/25 14:23:33;;;;;;;4.93;1.63;;;;;;;;;;5050691;28;20024;-86
2022/10/25 14:26:00;;;;;;;4.00;1.58;;;;;;;;;;5051361;28;20489;-88
2022/10/25 14:28:34;;;;;;;5.50;1.77;;;;;;;;;;5027184;28;20439;-87
2022/10/25 14:31:04;;;;;;;3.15;1.25;;;;;;;;;;5034328;28;20172;-90
2022/10/25 14:33:52;;;;;;;4.28;1.60;;;;;;;;;;5031245;28;20052;-85
2022/10/25 14:36:32;;;;;;;5.07;1.88;;;;;;;;;;5048403;28;20027;-86
2022/10/25 14:39:22;;;;;;;4.70;1.85;;;;;;;;;;5047904;28;20100;-87
2022/10/25 14:41:51;;;;;;;4.65;1.95;;;;;;;;;;5047992;28;20373;-86
2022/10/25 14:44:29;;;;;;;3.55;1.55;;;;;;;;;;5047067;28;20080;-85
2022/10/25 14:46:57;;;;;;;6.82;1.30;;;;;;;;;;5024521;28;20112;-86
2022/10/25 14:49:23;;;;;;;7.63;2.28;;;;;;;;;;5046105;28;20036;-86
2022/10/25 14:52:09;;;;;;;2.20;1.13;;;;;;;;;;5032712;28;20762;-85
2022/10/25 14:54:41;;;;;;;2.60;1.50;;;;;;;;;;5048696;28;20726;-87
2022/10/25 14:57:09;;;;;;;2.47;1.45;;;;;;;;;;5030859;28;20020;-85
2022/10/25 14:59:43;;;;;;;1.23;1.10;;;;;;;;;;5043340;28;20025;-86
2022/10/25 15:02:23;;;;;;;3.03;1.23;;;;;;;;;;5028195;28;20035;-85
2022/10/25 15:04:52;;;;;;;3.25;1.30;;;;;;;;;;5052229;28;20542;-86
2022/10/25 15:07:27;;;;;;;2.15;1.55;;;;;;;;;;5048376;28;20100;-87
2022/10/25 15:09:57;;;;;;;5.63;1.75;;;;;;;;;;5048712;28;20061;-89
2022/10/25 15:12:25;;;;;;;5.78;1.67;;;;;;;;;;5046598;28;20032;-86
2022/10/25 15:14:54;;;;;;;1.45;1.13;;;;;;;;;;5045582;28;20051;-87
2022/10/25 15:17:29;;;;;;;2.15;1.25;;;;;;;;;;5029005;28;20058;-88
2022/10/25 15:20:15;;;;;;;3.08;1.23;;;;;;;;;;5046945;28;20043;-87
2022/10/25 15:22:48;;;;;;;10.00;1.95;;;;;;;;;;5030384;28;20029;-87
2022/10/25 15:25:23;;;;;;;4.88;1.48;;;;;;;;;;5029953;28;20045;-85
2022/10/25 15:27:51;;;;;;;5.55;1.10;;;;;;;;;;5048114;28;20362;-86
2022/10/25 15:30:41;;;;;;;7.13;1.60;;;;;;;;;;5045586;28;20025;-87
2022/10/25 15:33:25;;;;;;;4.85;1.30;;;;;;;;;;5027808;28;20055;-87
2022/10/25 15:35:54;;;;;;;2.47;1.10;;;;;;;;;;5038395;28;20028;-87
2022/10/25 15:38:20;;;;;;;3.75;1.15;;;;;;;;;;5047293;28;20419;-87
2022/10/25 15:40:47;;;;;;;3.25;1.50;;;;;;;;;;5045150;28;20056;-86
2022/10/25 15:43:13;;;;;;;2.38;1.05;;;;;;;;;;5022716;28;20026;-88
2022/10/25 15:45:38;;;;;;;4.10;1.40;;;;;;;;;;5043069;28;20036;-87
2022/10/25 15:48:06;;;;;;;5.57;1.50;;;;;;;;;;5038273;28;20032;-87
2022/10/25 15:50:31;;;;;;;1.63;1.10;;;;;;;;;;5029743;28;20331;-87
2022/10/25 15:52:57;;;;;;;5.78;1.60;;;;;;;;;;5048144;28;20035;-88
2022/10/25 15:55:25;;;;;;;1.60;0.85;;;;;;;;;;5032489;28;20030;-88
2022/10/25 15:57:51;;;;;;;5.75;1.67;;;;;;;;;;5024369;28;20049;-87
2022/10/25 16:00:23;;;;;;;4.05;1.52;;;;;;;;;;5020646;28;20067;-87
2022/10/25 16:02:49;;;;;;;4.47;1.60;;;;;;;;;;5044895;28;20029;-87
2022/10/25 16:05:26;;;;;;;1.38;0.80;;;;;;;;;;5026038;28;20504;-88
2022/10/25 16:07:52;;;;;;;1.25;0.80;;;;;;;;;;5049141;28;20469;-88
2022/10/25 16:10:19;;;;;;;2.85;1.23;;;;;;;;;;5044919;28;20021;-87
2022/10/25 16:12:49;;;;;;;3.50;1.05;;;;;;;;;;5042479;28;20144;-89
2022/10/25 16:15:16;;;;;;;1.98;1.23;;;;;;;;;;5025872;28;20029;-89
2022/10/25 16:17:46;;;;;;;2.38;1.08;;;;;;;;;;5052620;28;20035;-87
2022/10/25 16:20:24;;;;;;;5.78;0.90;;;;;;;;;;5044492;28;20107;-88
2022/10/25 16:22:50;;;;;;;1.67;0.80;;;;;;;;;;5031390;28;20067;-88
2022/10/25 16:25:17;;;;;;;1.77;0.80;;;;;;;;;;5045159;28;20074;-87
2022/10/25 16:27:45;;;;;;;2.15;1.05;;;;;;;;;;5046679;28;20384;-87
2022/10/25 16:30:16;;;;;;;1.15;0.70;;;;;;;;;;5031227;28;20021;-87
2022/10/25 16:32:42;;;;;;;4.25;1.40;;;;;;;;;;5050668;28;20032;-87
2022/10/25 16:35:09;;;;;;;6.43;1.10;;;;;;;;;;5029452;28;20028;-88
2022/10/25 16:37:34;;;;;;;1.23;0.70;;;;;;;;;;5040074;28;20086;-88
2022/10/25 16:40:00;;;;;;;3.15;1.38;;;;;;;;;;5022379;28;20444;-87
2022/10/25 16:42:39;;;;;;;2.58;0.98;;;;;;;;;;5047846;28;20025;-87
2022/10/25 16:45:13;;;;;;;3.70;1.20;;;;;;;;;;5044324;28;20017;-88
2022/10/25 16:47:38;;;;;;;2.03;1.30;;;;;;;;;;5031592;28;20128;-88
2022/10/25 16:50:04;;;;;;;1.30;0.57;;;;;;;;;;5029284;28;20052;-89
2022/10/25 16:52:30;;;;;;;1.52;0.80;;;;;;;;;;5048885;28;20095;-87
2022/10/25 16:54:55;;;;;;;6.20;1.13;;;;;;;;;;5052410;28;20021;-90